<?xml version="1.0" encoding="UTF-8" standalone="no" ?>
<gpx xmlns="http://www.topografix.com/GPX/1/1" xmlns:xsi="http://www.w3.org/2001/XMLSchema-instance" xsi:schemaLocation="http://www.topografix.com/GPX/1/1 http://www.topografix.com/GPX/1/1/gpx.xsd" version="1.1" creator="VisuGPX - https://www.visugpx.com">
  <metadata>
    <name>Dreuil les Amiens_ 7km</name>
    <desc><![CDATA[Walkmeter Marche 28 déc. 2012 18:39:22]]></desc>
  </metadata>
  <trk>
    <name><![CDATA[Chemins en Somme]]></name>
    <trkseg>
      <trkpt lat="49.91549" lon="2.23032">
        <ele>28.6</ele>
        <time>2012-12-28T17:39:22Z</time>
      </trkpt>
      <trkpt lat="49.91549" lon="2.23011">
        <ele>27.1</ele>
        <time>2012-12-28T17:39:28Z</time>
      </trkpt>
      <trkpt lat="49.91549" lon="2.23011">
        <ele>27.1</ele>
        <time>2012-12-28T17:40:24Z</time>
      </trkpt>
      <trkpt lat="49.91547" lon="2.22999">
        <ele>27.6</ele>
        <time>2012-12-28T17:40:26Z</time>
      </trkpt>
      <trkpt lat="49.91551" lon="2.22978">
        <ele>30.2</ele>
        <time>2012-12-28T17:40:42Z</time>
      </trkpt>
      <trkpt lat="49.91555" lon="2.22958">
        <ele>36.1</ele>
        <time>2012-12-28T17:40:53Z</time>
      </trkpt>
      <trkpt lat="49.91559" lon="2.22936">
        <ele>42.4</ele>
        <time>2012-12-28T17:41:05Z</time>
      </trkpt>
      <trkpt lat="49.91562" lon="2.22927">
        <ele>44.3</ele>
        <time>2012-12-28T17:41:11Z</time>
      </trkpt>
      <trkpt lat="49.91577" lon="2.2293">
        <ele>37.9</ele>
        <time>2012-12-28T17:41:27Z</time>
      </trkpt>
      <trkpt lat="49.91588" lon="2.22937">
        <ele>29.6</ele>
        <time>2012-12-28T17:41:34Z</time>
      </trkpt>
      <trkpt lat="49.916" lon="2.22952">
        <ele>24.3</ele>
        <time>2012-12-28T17:41:39Z</time>
      </trkpt>
      <trkpt lat="49.91615" lon="2.22956">
        <ele>16.1</ele>
        <time>2012-12-28T17:41:52Z</time>
      </trkpt>
      <trkpt lat="49.91632" lon="2.22968">
        <ele>11.3</ele>
        <time>2012-12-28T17:42:03Z</time>
      </trkpt>
      <trkpt lat="49.91646" lon="2.22976">
        <ele>11</ele>
        <time>2012-12-28T17:42:15Z</time>
      </trkpt>
      <trkpt lat="49.91659" lon="2.22985">
        <ele>4.1</ele>
        <time>2012-12-28T17:42:26Z</time>
      </trkpt>
      <trkpt lat="49.91673" lon="2.22994">
        <ele>7.4</ele>
        <time>2012-12-28T17:42:37Z</time>
      </trkpt>
      <trkpt lat="49.91686" lon="2.23001">
        <ele>8.4</ele>
        <time>2012-12-28T17:42:47Z</time>
      </trkpt>
      <trkpt lat="49.91699" lon="2.23011">
        <ele>10.5</ele>
        <time>2012-12-28T17:42:57Z</time>
      </trkpt>
      <trkpt lat="49.91714" lon="2.23017">
        <ele>12.9</ele>
        <time>2012-12-28T17:43:07Z</time>
      </trkpt>
      <trkpt lat="49.91728" lon="2.23017">
        <ele>15.6</ele>
        <time>2012-12-28T17:43:19Z</time>
      </trkpt>
      <trkpt lat="49.9174" lon="2.23005">
        <ele>14.6</ele>
        <time>2012-12-28T17:43:29Z</time>
      </trkpt>
      <trkpt lat="49.91751" lon="2.22991">
        <ele>11.3</ele>
        <time>2012-12-28T17:43:40Z</time>
      </trkpt>
      <trkpt lat="49.91761" lon="2.22973">
        <ele>16.7</ele>
        <time>2012-12-28T17:43:50Z</time>
      </trkpt>
      <trkpt lat="49.91771" lon="2.22956">
        <ele>13.7</ele>
        <time>2012-12-28T17:44:01Z</time>
      </trkpt>
      <trkpt lat="49.91783" lon="2.2294">
        <ele>18.5</ele>
        <time>2012-12-28T17:44:14Z</time>
      </trkpt>
      <trkpt lat="49.91795" lon="2.22928">
        <ele>20.7</ele>
        <time>2012-12-28T17:44:23Z</time>
      </trkpt>
      <trkpt lat="49.91809" lon="2.22921">
        <ele>17.6</ele>
        <time>2012-12-28T17:44:35Z</time>
      </trkpt>
      <trkpt lat="49.91823" lon="2.22926">
        <ele>15.1</ele>
        <time>2012-12-28T17:44:49Z</time>
      </trkpt>
      <trkpt lat="49.91839" lon="2.22931">
        <ele>10.1</ele>
        <time>2012-12-28T17:45:00Z</time>
      </trkpt>
      <trkpt lat="49.91853" lon="2.22932">
        <ele>15</ele>
        <time>2012-12-28T17:45:11Z</time>
      </trkpt>
      <trkpt lat="49.91857" lon="2.2291">
        <ele>17.4</ele>
        <time>2012-12-28T17:45:28Z</time>
      </trkpt>
      <trkpt lat="49.91859" lon="2.22887">
        <ele>14</ele>
        <time>2012-12-28T17:45:38Z</time>
      </trkpt>
      <trkpt lat="49.91862" lon="2.22865">
        <ele>14.5</ele>
        <time>2012-12-28T17:45:50Z</time>
      </trkpt>
      <trkpt lat="49.91866" lon="2.22838">
        <ele>16.4</ele>
        <time>2012-12-28T17:46:02Z</time>
      </trkpt>
      <trkpt lat="49.91868" lon="2.22816">
        <ele>14.8</ele>
        <time>2012-12-28T17:46:14Z</time>
      </trkpt>
      <trkpt lat="49.91867" lon="2.22795">
        <ele>11.9</ele>
        <time>2012-12-28T17:46:23Z</time>
      </trkpt>
      <trkpt lat="49.91866" lon="2.22773">
        <ele>10.5</ele>
        <time>2012-12-28T17:46:32Z</time>
      </trkpt>
      <trkpt lat="49.91866" lon="2.22752">
        <ele>9</ele>
        <time>2012-12-28T17:46:41Z</time>
      </trkpt>
      <trkpt lat="49.91862" lon="2.22731">
        <ele>7.4</ele>
        <time>2012-12-28T17:46:52Z</time>
      </trkpt>
      <trkpt lat="49.91855" lon="2.22713">
        <ele>5.9</ele>
        <time>2012-12-28T17:47:03Z</time>
      </trkpt>
      <trkpt lat="49.91846" lon="2.22695">
        <ele>4.9</ele>
        <time>2012-12-28T17:47:16Z</time>
      </trkpt>
      <trkpt lat="49.91834" lon="2.2268">
        <ele>4.4</ele>
        <time>2012-12-28T17:47:25Z</time>
      </trkpt>
      <trkpt lat="49.91822" lon="2.22667">
        <ele>6.3</ele>
        <time>2012-12-28T17:47:36Z</time>
      </trkpt>
      <trkpt lat="49.91811" lon="2.22655">
        <ele>9.9</ele>
        <time>2012-12-28T17:47:46Z</time>
      </trkpt>
      <trkpt lat="49.91799" lon="2.22643">
        <ele>12.5</ele>
        <time>2012-12-28T17:47:57Z</time>
      </trkpt>
      <trkpt lat="49.91791" lon="2.22625">
        <ele>8.2</ele>
        <time>2012-12-28T17:48:08Z</time>
      </trkpt>
      <trkpt lat="49.91786" lon="2.22604">
        <ele>8.8</ele>
        <time>2012-12-28T17:48:18Z</time>
      </trkpt>
      <trkpt lat="49.91784" lon="2.22582">
        <ele>6.2</ele>
        <time>2012-12-28T17:48:27Z</time>
      </trkpt>
      <trkpt lat="49.91784" lon="2.22559">
        <ele>8.2</ele>
        <time>2012-12-28T17:48:38Z</time>
      </trkpt>
      <trkpt lat="49.9178" lon="2.22533">
        <ele>11.6</ele>
        <time>2012-12-28T17:48:48Z</time>
      </trkpt>
      <trkpt lat="49.91777" lon="2.22509">
        <ele>10.9</ele>
        <time>2012-12-28T17:48:59Z</time>
      </trkpt>
      <trkpt lat="49.91778" lon="2.22487">
        <ele>15.9</ele>
        <time>2012-12-28T17:49:10Z</time>
      </trkpt>
      <trkpt lat="49.91781" lon="2.22465">
        <ele>18.9</ele>
        <time>2012-12-28T17:49:19Z</time>
      </trkpt>
      <trkpt lat="49.91785" lon="2.22445">
        <ele>19.1</ele>
        <time>2012-12-28T17:49:30Z</time>
      </trkpt>
      <trkpt lat="49.9179" lon="2.22423">
        <ele>16.9</ele>
        <time>2012-12-28T17:49:39Z</time>
      </trkpt>
      <trkpt lat="49.91797" lon="2.22401">
        <ele>21</ele>
        <time>2012-12-28T17:49:51Z</time>
      </trkpt>
      <trkpt lat="49.91804" lon="2.2238">
        <ele>20.3</ele>
        <time>2012-12-28T17:50:02Z</time>
      </trkpt>
      <trkpt lat="49.9181" lon="2.2236">
        <ele>20.2</ele>
        <time>2012-12-28T17:50:10Z</time>
      </trkpt>
      <trkpt lat="49.91817" lon="2.22341">
        <ele>24.5</ele>
        <time>2012-12-28T17:50:21Z</time>
      </trkpt>
      <trkpt lat="49.91824" lon="2.22317">
        <ele>19.1</ele>
        <time>2012-12-28T17:50:32Z</time>
      </trkpt>
      <trkpt lat="49.91829" lon="2.22297">
        <ele>16</ele>
        <time>2012-12-28T17:50:45Z</time>
      </trkpt>
      <trkpt lat="49.9183" lon="2.22274">
        <ele>14.2</ele>
        <time>2012-12-28T17:50:55Z</time>
      </trkpt>
      <trkpt lat="49.91827" lon="2.2225">
        <ele>11.7</ele>
        <time>2012-12-28T17:51:09Z</time>
      </trkpt>
      <trkpt lat="49.91823" lon="2.22228">
        <ele>9.9</ele>
        <time>2012-12-28T17:51:21Z</time>
      </trkpt>
      <trkpt lat="49.91818" lon="2.22205">
        <ele>7.8</ele>
        <time>2012-12-28T17:51:38Z</time>
      </trkpt>
      <trkpt lat="49.91815" lon="2.22184">
        <ele>6.6</ele>
        <time>2012-12-28T17:51:48Z</time>
      </trkpt>
      <trkpt lat="49.91816" lon="2.22162">
        <ele>5.5</ele>
        <time>2012-12-28T17:51:57Z</time>
      </trkpt>
      <trkpt lat="49.91817" lon="2.22139">
        <ele>8</ele>
        <time>2012-12-28T17:52:06Z</time>
      </trkpt>
      <trkpt lat="49.9182" lon="2.22116">
        <ele>11.8</ele>
        <time>2012-12-28T17:52:17Z</time>
      </trkpt>
      <trkpt lat="49.91827" lon="2.22097">
        <ele>17.9</ele>
        <time>2012-12-28T17:52:25Z</time>
      </trkpt>
      <trkpt lat="49.91836" lon="2.22081">
        <ele>15.5</ele>
        <time>2012-12-28T17:52:35Z</time>
      </trkpt>
      <trkpt lat="49.91845" lon="2.22064">
        <ele>17.9</ele>
        <time>2012-12-28T17:52:43Z</time>
      </trkpt>
      <trkpt lat="49.91853" lon="2.22046">
        <ele>15.8</ele>
        <time>2012-12-28T17:52:54Z</time>
      </trkpt>
      <trkpt lat="49.91864" lon="2.22027">
        <ele>17.8</ele>
        <time>2012-12-28T17:53:09Z</time>
      </trkpt>
      <trkpt lat="49.91872" lon="2.22008">
        <ele>14.2</ele>
        <time>2012-12-28T17:53:20Z</time>
      </trkpt>
      <trkpt lat="49.91875" lon="2.21987">
        <ele>12.6</ele>
        <time>2012-12-28T17:53:30Z</time>
      </trkpt>
      <trkpt lat="49.91887" lon="2.21956">
        <ele>10.8</ele>
        <time>2012-12-28T17:53:43Z</time>
      </trkpt>
      <trkpt lat="49.91886" lon="2.21933">
        <ele>12.2</ele>
        <time>2012-12-28T17:53:55Z</time>
      </trkpt>
      <trkpt lat="49.91891" lon="2.21911">
        <ele>15.4</ele>
        <time>2012-12-28T17:54:03Z</time>
      </trkpt>
      <trkpt lat="49.91898" lon="2.21893">
        <ele>19.1</ele>
        <time>2012-12-28T17:54:12Z</time>
      </trkpt>
      <trkpt lat="49.91906" lon="2.21876">
        <ele>22.8</ele>
        <time>2012-12-28T17:54:21Z</time>
      </trkpt>
      <trkpt lat="49.91916" lon="2.21861">
        <ele>20.7</ele>
        <time>2012-12-28T17:54:31Z</time>
      </trkpt>
      <trkpt lat="49.91928" lon="2.21849">
        <ele>18.8</ele>
        <time>2012-12-28T17:54:43Z</time>
      </trkpt>
      <trkpt lat="49.9194" lon="2.21838">
        <ele>18.4</ele>
        <time>2012-12-28T17:54:53Z</time>
      </trkpt>
      <trkpt lat="49.91953" lon="2.21826">
        <ele>12.8</ele>
        <time>2012-12-28T17:55:04Z</time>
      </trkpt>
      <trkpt lat="49.91967" lon="2.21815">
        <ele>10.2</ele>
        <time>2012-12-28T17:55:13Z</time>
      </trkpt>
      <trkpt lat="49.91978" lon="2.21801">
        <ele>8.3</ele>
        <time>2012-12-28T17:55:25Z</time>
      </trkpt>
      <trkpt lat="49.91988" lon="2.21785">
        <ele>10.3</ele>
        <time>2012-12-28T17:55:37Z</time>
      </trkpt>
      <trkpt lat="49.91994" lon="2.21764">
        <ele>7.7</ele>
        <time>2012-12-28T17:55:47Z</time>
      </trkpt>
      <trkpt lat="49.91999" lon="2.21744">
        <ele>12.4</ele>
        <time>2012-12-28T17:55:58Z</time>
      </trkpt>
      <trkpt lat="49.92008" lon="2.21726">
        <ele>12.3</ele>
        <time>2012-12-28T17:56:10Z</time>
      </trkpt>
      <trkpt lat="49.92016" lon="2.21705">
        <ele>19.7</ele>
        <time>2012-12-28T17:56:19Z</time>
      </trkpt>
      <trkpt lat="49.92027" lon="2.21688">
        <ele>18.4</ele>
        <time>2012-12-28T17:56:29Z</time>
      </trkpt>
      <trkpt lat="49.92039" lon="2.21674">
        <ele>21.1</ele>
        <time>2012-12-28T17:56:38Z</time>
      </trkpt>
      <trkpt lat="49.92049" lon="2.21659">
        <ele>17.5</ele>
        <time>2012-12-28T17:56:49Z</time>
      </trkpt>
      <trkpt lat="49.92059" lon="2.21646">
        <ele>12.8</ele>
        <time>2012-12-28T17:57:01Z</time>
      </trkpt>
      <trkpt lat="49.92068" lon="2.21627">
        <ele>1.7</ele>
        <time>2012-12-28T17:57:12Z</time>
      </trkpt>
      <trkpt lat="49.92073" lon="2.21607">
        <ele>4.5</ele>
        <time>2012-12-28T17:57:23Z</time>
      </trkpt>
      <trkpt lat="49.92082" lon="2.2159">
        <ele>8.8</ele>
        <time>2012-12-28T17:57:33Z</time>
      </trkpt>
      <trkpt lat="49.92091" lon="2.21572">
        <ele>15.2</ele>
        <time>2012-12-28T17:57:47Z</time>
      </trkpt>
      <trkpt lat="49.92099" lon="2.21554">
        <ele>17.5</ele>
        <time>2012-12-28T17:57:55Z</time>
      </trkpt>
      <trkpt lat="49.92111" lon="2.2154">
        <ele>20.4</ele>
        <time>2012-12-28T17:58:05Z</time>
      </trkpt>
      <trkpt lat="49.92121" lon="2.21526">
        <ele>14.6</ele>
        <time>2012-12-28T17:58:14Z</time>
      </trkpt>
      <trkpt lat="49.92133" lon="2.21513">
        <ele>9.2</ele>
        <time>2012-12-28T17:58:27Z</time>
      </trkpt>
      <trkpt lat="49.92144" lon="2.21501">
        <ele>6.9</ele>
        <time>2012-12-28T17:58:36Z</time>
      </trkpt>
      <trkpt lat="49.92153" lon="2.21485">
        <ele>6.4</ele>
        <time>2012-12-28T17:58:44Z</time>
      </trkpt>
      <trkpt lat="49.92163" lon="2.21469">
        <ele>7.4</ele>
        <time>2012-12-28T17:58:57Z</time>
      </trkpt>
      <trkpt lat="49.92173" lon="2.21454">
        <ele>9.4</ele>
        <time>2012-12-28T17:59:08Z</time>
      </trkpt>
      <trkpt lat="49.92181" lon="2.21437">
        <ele>9.8</ele>
        <time>2012-12-28T17:59:18Z</time>
      </trkpt>
      <trkpt lat="49.92193" lon="2.21419">
        <ele>2.7</ele>
        <time>2012-12-28T17:59:30Z</time>
      </trkpt>
      <trkpt lat="49.92203" lon="2.21402">
        <ele>4.3</ele>
        <time>2012-12-28T17:59:41Z</time>
      </trkpt>
      <trkpt lat="49.92213" lon="2.21387">
        <ele>3.5</ele>
        <time>2012-12-28T17:59:51Z</time>
      </trkpt>
      <trkpt lat="49.92225" lon="2.2137">
        <ele>10.1</ele>
        <time>2012-12-28T18:00:03Z</time>
      </trkpt>
      <trkpt lat="49.92234" lon="2.21353">
        <ele>13.5</ele>
        <time>2012-12-28T18:00:12Z</time>
      </trkpt>
      <trkpt lat="49.92243" lon="2.21334">
        <ele>19.4</ele>
        <time>2012-12-28T18:00:23Z</time>
      </trkpt>
      <trkpt lat="49.92252" lon="2.21317">
        <ele>21.4</ele>
        <time>2012-12-28T18:00:34Z</time>
      </trkpt>
      <trkpt lat="49.92259" lon="2.21299">
        <ele>19.3</ele>
        <time>2012-12-28T18:00:44Z</time>
      </trkpt>
      <trkpt lat="49.92267" lon="2.21279">
        <ele>21.5</ele>
        <time>2012-12-28T18:00:55Z</time>
      </trkpt>
      <trkpt lat="49.92276" lon="2.21261">
        <ele>16</ele>
        <time>2012-12-28T18:01:05Z</time>
      </trkpt>
      <trkpt lat="49.92285" lon="2.21245">
        <ele>17.9</ele>
        <time>2012-12-28T18:01:17Z</time>
      </trkpt>
      <trkpt lat="49.92295" lon="2.21231">
        <ele>15.2</ele>
        <time>2012-12-28T18:01:27Z</time>
      </trkpt>
      <trkpt lat="49.92306" lon="2.21218">
        <ele>20.1</ele>
        <time>2012-12-28T18:01:36Z</time>
      </trkpt>
      <trkpt lat="49.92318" lon="2.21204">
        <ele>15</ele>
        <time>2012-12-28T18:01:47Z</time>
      </trkpt>
      <trkpt lat="49.92328" lon="2.2119">
        <ele>14</ele>
        <time>2012-12-28T18:01:57Z</time>
      </trkpt>
      <trkpt lat="49.9234" lon="2.21176">
        <ele>16.2</ele>
        <time>2012-12-28T18:02:06Z</time>
      </trkpt>
      <trkpt lat="49.92352" lon="2.21163">
        <ele>22.5</ele>
        <time>2012-12-28T18:02:18Z</time>
      </trkpt>
      <trkpt lat="49.92363" lon="2.2115">
        <ele>22.1</ele>
        <time>2012-12-28T18:02:28Z</time>
      </trkpt>
      <trkpt lat="49.92377" lon="2.21141">
        <ele>19</ele>
        <time>2012-12-28T18:02:39Z</time>
      </trkpt>
      <trkpt lat="49.92389" lon="2.2113">
        <ele>16.4</ele>
        <time>2012-12-28T18:02:50Z</time>
      </trkpt>
      <trkpt lat="49.92401" lon="2.21118">
        <ele>14.2</ele>
        <time>2012-12-28T18:03:01Z</time>
      </trkpt>
      <trkpt lat="49.92413" lon="2.21106">
        <ele>13.4</ele>
        <time>2012-12-28T18:03:10Z</time>
      </trkpt>
      <trkpt lat="49.92423" lon="2.21087">
        <ele>17.2</ele>
        <time>2012-12-28T18:03:21Z</time>
      </trkpt>
      <trkpt lat="49.92437" lon="2.21069">
        <ele>14.3</ele>
        <time>2012-12-28T18:03:34Z</time>
      </trkpt>
      <trkpt lat="49.92448" lon="2.21056">
        <ele>13.3</ele>
        <time>2012-12-28T18:03:47Z</time>
      </trkpt>
      <trkpt lat="49.92459" lon="2.21042">
        <ele>15.2</ele>
        <time>2012-12-28T18:03:57Z</time>
      </trkpt>
      <trkpt lat="49.92469" lon="2.21026">
        <ele>11.4</ele>
        <time>2012-12-28T18:04:06Z</time>
      </trkpt>
      <trkpt lat="49.9248" lon="2.21013">
        <ele>8.4</ele>
        <time>2012-12-28T18:04:16Z</time>
      </trkpt>
      <trkpt lat="49.92491" lon="2.20995">
        <ele>12.4</ele>
        <time>2012-12-28T18:04:28Z</time>
      </trkpt>
      <trkpt lat="49.92503" lon="2.20982">
        <ele>14.4</ele>
        <time>2012-12-28T18:04:40Z</time>
      </trkpt>
      <trkpt lat="49.92512" lon="2.20965">
        <ele>13.2</ele>
        <time>2012-12-28T18:04:48Z</time>
      </trkpt>
      <trkpt lat="49.92524" lon="2.20948">
        <ele>12.5</ele>
        <time>2012-12-28T18:05:00Z</time>
      </trkpt>
      <trkpt lat="49.92533" lon="2.20932">
        <ele>16.1</ele>
        <time>2012-12-28T18:05:12Z</time>
      </trkpt>
      <trkpt lat="49.92545" lon="2.20914">
        <ele>15.9</ele>
        <time>2012-12-28T18:05:21Z</time>
      </trkpt>
      <trkpt lat="49.92554" lon="2.20897">
        <ele>19</ele>
        <time>2012-12-28T18:05:32Z</time>
      </trkpt>
      <trkpt lat="49.92563" lon="2.2088">
        <ele>22.3</ele>
        <time>2012-12-28T18:05:42Z</time>
      </trkpt>
      <trkpt lat="49.92573" lon="2.20864">
        <ele>16</ele>
        <time>2012-12-28T18:05:54Z</time>
      </trkpt>
      <trkpt lat="49.92582" lon="2.20848">
        <ele>20.7</ele>
        <time>2012-12-28T18:06:03Z</time>
      </trkpt>
      <trkpt lat="49.92593" lon="2.20835">
        <ele>24.2</ele>
        <time>2012-12-28T18:06:12Z</time>
      </trkpt>
      <trkpt lat="49.92603" lon="2.20821">
        <ele>24.4</ele>
        <time>2012-12-28T18:06:22Z</time>
      </trkpt>
      <trkpt lat="49.92614" lon="2.20807">
        <ele>24.4</ele>
        <time>2012-12-28T18:06:33Z</time>
      </trkpt>
      <trkpt lat="49.92623" lon="2.20792">
        <ele>28.3</ele>
        <time>2012-12-28T18:06:41Z</time>
      </trkpt>
      <trkpt lat="49.92631" lon="2.20774">
        <ele>30.4</ele>
        <time>2012-12-28T18:06:51Z</time>
      </trkpt>
      <trkpt lat="49.92642" lon="2.20758">
        <ele>29.4</ele>
        <time>2012-12-28T18:07:01Z</time>
      </trkpt>
      <trkpt lat="49.92649" lon="2.2074">
        <ele>31.8</ele>
        <time>2012-12-28T18:07:12Z</time>
      </trkpt>
      <trkpt lat="49.92659" lon="2.20726">
        <ele>34.9</ele>
        <time>2012-12-28T18:07:20Z</time>
      </trkpt>
      <trkpt lat="49.92672" lon="2.20716">
        <ele>34.4</ele>
        <time>2012-12-28T18:07:29Z</time>
      </trkpt>
      <trkpt lat="49.92685" lon="2.20708">
        <ele>28.5</ele>
        <time>2012-12-28T18:07:42Z</time>
      </trkpt>
      <trkpt lat="49.92693" lon="2.20685">
        <ele>30.1</ele>
        <time>2012-12-28T18:07:54Z</time>
      </trkpt>
      <trkpt lat="49.92703" lon="2.20669">
        <ele>31.8</ele>
        <time>2012-12-28T18:08:07Z</time>
      </trkpt>
      <trkpt lat="49.92714" lon="2.20656">
        <ele>31.8</ele>
        <time>2012-12-28T18:08:20Z</time>
      </trkpt>
      <trkpt lat="49.92726" lon="2.20641">
        <ele>25.2</ele>
        <time>2012-12-28T18:08:31Z</time>
      </trkpt>
      <trkpt lat="49.92736" lon="2.20627">
        <ele>24.1</ele>
        <time>2012-12-28T18:08:39Z</time>
      </trkpt>
      <trkpt lat="49.92745" lon="2.20611">
        <ele>24.4</ele>
        <time>2012-12-28T18:08:47Z</time>
      </trkpt>
      <trkpt lat="49.92755" lon="2.20597">
        <ele>20.7</ele>
        <time>2012-12-28T18:08:57Z</time>
      </trkpt>
      <trkpt lat="49.92762" lon="2.20577">
        <ele>26.9</ele>
        <time>2012-12-28T18:09:05Z</time>
      </trkpt>
      <trkpt lat="49.92768" lon="2.20558">
        <ele>30.4</ele>
        <time>2012-12-28T18:09:16Z</time>
      </trkpt>
      <trkpt lat="49.9278" lon="2.20545">
        <ele>33.9</ele>
        <time>2012-12-28T18:09:27Z</time>
      </trkpt>
      <trkpt lat="49.92794" lon="2.20529">
        <ele>34.5</ele>
        <time>2012-12-28T18:09:37Z</time>
      </trkpt>
      <trkpt lat="49.92806" lon="2.20516">
        <ele>34</ele>
        <time>2012-12-28T18:09:50Z</time>
      </trkpt>
      <trkpt lat="49.92817" lon="2.20502">
        <ele>37.2</ele>
        <time>2012-12-28T18:10:03Z</time>
      </trkpt>
      <trkpt lat="49.92826" lon="2.20487">
        <ele>37.5</ele>
        <time>2012-12-28T18:10:13Z</time>
      </trkpt>
      <trkpt lat="49.92837" lon="2.2047">
        <ele>33</ele>
        <time>2012-12-28T18:10:24Z</time>
      </trkpt>
      <trkpt lat="49.92845" lon="2.20454">
        <ele>27.9</ele>
        <time>2012-12-28T18:10:33Z</time>
      </trkpt>
      <trkpt lat="49.92854" lon="2.20436">
        <ele>25.7</ele>
        <time>2012-12-28T18:10:44Z</time>
      </trkpt>
      <trkpt lat="49.92865" lon="2.20414">
        <ele>26.4</ele>
        <time>2012-12-28T18:10:54Z</time>
      </trkpt>
      <trkpt lat="49.92872" lon="2.20394">
        <ele>23.7</ele>
        <time>2012-12-28T18:11:08Z</time>
      </trkpt>
      <trkpt lat="49.92879" lon="2.20376">
        <ele>26</ele>
        <time>2012-12-28T18:11:20Z</time>
      </trkpt>
      <trkpt lat="49.92887" lon="2.20358">
        <ele>26.4</ele>
        <time>2012-12-28T18:11:30Z</time>
      </trkpt>
      <trkpt lat="49.92895" lon="2.20339">
        <ele>28.2</ele>
        <time>2012-12-28T18:11:41Z</time>
      </trkpt>
      <trkpt lat="49.92903" lon="2.20322">
        <ele>30.7</ele>
        <time>2012-12-28T18:11:51Z</time>
      </trkpt>
      <trkpt lat="49.92912" lon="2.20305">
        <ele>25.6</ele>
        <time>2012-12-28T18:12:00Z</time>
      </trkpt>
      <trkpt lat="49.92918" lon="2.20284">
        <ele>27.8</ele>
        <time>2012-12-28T18:12:13Z</time>
      </trkpt>
      <trkpt lat="49.92928" lon="2.20269">
        <ele>30.5</ele>
        <time>2012-12-28T18:12:22Z</time>
      </trkpt>
      <trkpt lat="49.92933" lon="2.20247">
        <ele>32.9</ele>
        <time>2012-12-28T18:12:30Z</time>
      </trkpt>
      <trkpt lat="49.92939" lon="2.20227">
        <ele>24.8</ele>
        <time>2012-12-28T18:12:39Z</time>
      </trkpt>
      <trkpt lat="49.92947" lon="2.20205">
        <ele>28.9</ele>
        <time>2012-12-28T18:12:51Z</time>
      </trkpt>
      <trkpt lat="49.92955" lon="2.20187">
        <ele>32.5</ele>
        <time>2012-12-28T18:13:04Z</time>
      </trkpt>
      <trkpt lat="49.92962" lon="2.20167">
        <ele>30.7</ele>
        <time>2012-12-28T18:13:14Z</time>
      </trkpt>
      <trkpt lat="49.9297" lon="2.20149">
        <ele>31.2</ele>
        <time>2012-12-28T18:13:25Z</time>
      </trkpt>
      <trkpt lat="49.92984" lon="2.20129">
        <ele>19.9</ele>
        <time>2012-12-28T18:13:41Z</time>
      </trkpt>
      <trkpt lat="49.92984" lon="2.20129">
        <ele>19.9</ele>
        <time>2012-12-28T18:17:07Z</time>
      </trkpt>
      <trkpt lat="49.9299" lon="2.20124">
        <ele>7.9</ele>
        <time>2012-12-28T18:17:10Z</time>
      </trkpt>
      <trkpt lat="49.92976" lon="2.20115">
        <ele>6.9</ele>
        <time>2012-12-28T18:17:23Z</time>
      </trkpt>
      <trkpt lat="49.92964" lon="2.20104">
        <ele>0.3</ele>
        <time>2012-12-28T18:17:35Z</time>
      </trkpt>
      <trkpt lat="49.92952" lon="2.20095">
        <ele>0.2</ele>
        <time>2012-12-28T18:17:48Z</time>
      </trkpt>
      <trkpt lat="49.92938" lon="2.20082">
        <ele>3.3</ele>
        <time>2012-12-28T18:17:59Z</time>
      </trkpt>
      <trkpt lat="49.92927" lon="2.20069">
        <ele>0.3</ele>
        <time>2012-12-28T18:18:11Z</time>
      </trkpt>
      <trkpt lat="49.92914" lon="2.20062">
        <ele>2.1</ele>
        <time>2012-12-28T18:18:23Z</time>
      </trkpt>
      <trkpt lat="49.92898" lon="2.20057">
        <ele>4.2</ele>
        <time>2012-12-28T18:18:34Z</time>
      </trkpt>
      <trkpt lat="49.92884" lon="2.20056">
        <ele>6.7</ele>
        <time>2012-12-28T18:18:47Z</time>
      </trkpt>
      <trkpt lat="49.92866" lon="2.2005">
        <ele>10.5</ele>
        <time>2012-12-28T18:18:57Z</time>
      </trkpt>
      <trkpt lat="49.92853" lon="2.20046">
        <ele>10.1</ele>
        <time>2012-12-28T18:19:11Z</time>
      </trkpt>
      <trkpt lat="49.92834" lon="2.20044">
        <ele>9.5</ele>
        <time>2012-12-28T18:19:22Z</time>
      </trkpt>
      <trkpt lat="49.92819" lon="2.20034">
        <ele>5.9</ele>
        <time>2012-12-28T18:19:38Z</time>
      </trkpt>
      <trkpt lat="49.92806" lon="2.20023">
        <ele>7.3</ele>
        <time>2012-12-28T18:19:49Z</time>
      </trkpt>
      <trkpt lat="49.92788" lon="2.20017">
        <ele>8.1</ele>
        <time>2012-12-28T18:20:00Z</time>
      </trkpt>
      <trkpt lat="49.92775" lon="2.20024">
        <ele>11.6</ele>
        <time>2012-12-28T18:20:13Z</time>
      </trkpt>
      <trkpt lat="49.92762" lon="2.20036">
        <ele>14.5</ele>
        <time>2012-12-28T18:20:27Z</time>
      </trkpt>
      <trkpt lat="49.92748" lon="2.20033">
        <ele>11.2</ele>
        <time>2012-12-28T18:20:42Z</time>
      </trkpt>
      <trkpt lat="49.92735" lon="2.2004">
        <ele>8.6</ele>
        <time>2012-12-28T18:20:52Z</time>
      </trkpt>
      <trkpt lat="49.92723" lon="2.20049">
        <ele>12.9</ele>
        <time>2012-12-28T18:21:04Z</time>
      </trkpt>
      <trkpt lat="49.9271" lon="2.20064">
        <ele>16</ele>
        <time>2012-12-28T18:21:13Z</time>
      </trkpt>
      <trkpt lat="49.92699" lon="2.20075">
        <ele>20.3</ele>
        <time>2012-12-28T18:21:25Z</time>
      </trkpt>
      <trkpt lat="49.92693" lon="2.20094">
        <ele>23.5</ele>
        <time>2012-12-28T18:21:42Z</time>
      </trkpt>
      <trkpt lat="49.92683" lon="2.20111">
        <ele>25.3</ele>
        <time>2012-12-28T18:21:53Z</time>
      </trkpt>
      <trkpt lat="49.92671" lon="2.20131">
        <ele>21.8</ele>
        <time>2012-12-28T18:22:09Z</time>
      </trkpt>
      <trkpt lat="49.92659" lon="2.2014">
        <ele>14.7</ele>
        <time>2012-12-28T18:22:17Z</time>
      </trkpt>
      <trkpt lat="49.92648" lon="2.20126">
        <ele>13.7</ele>
        <time>2012-12-28T18:22:30Z</time>
      </trkpt>
      <trkpt lat="49.92635" lon="2.20117">
        <ele>22.4</ele>
        <time>2012-12-28T18:22:49Z</time>
      </trkpt>
      <trkpt lat="49.92623" lon="2.20074">
        <ele>28.3</ele>
        <time>2012-12-28T18:23:22Z</time>
      </trkpt>
      <trkpt lat="49.92623" lon="2.20074">
        <ele>28.3</ele>
        <time>2012-12-28T18:25:33Z</time>
      </trkpt>
      <trkpt lat="49.92624" lon="2.20047">
        <ele>35</ele>
        <time>2012-12-28T18:25:39Z</time>
      </trkpt>
      <trkpt lat="49.92633" lon="2.20028">
        <ele>38.2</ele>
        <time>2012-12-28T18:25:51Z</time>
      </trkpt>
      <trkpt lat="49.92641" lon="2.20008">
        <ele>36</ele>
        <time>2012-12-28T18:26:03Z</time>
      </trkpt>
      <trkpt lat="49.92637" lon="2.19988">
        <ele>27</ele>
        <time>2012-12-28T18:26:18Z</time>
      </trkpt>
      <trkpt lat="49.92625" lon="2.19972">
        <ele>24</ele>
        <time>2012-12-28T18:26:32Z</time>
      </trkpt>
      <trkpt lat="49.92614" lon="2.19963">
        <ele>26.1</ele>
        <time>2012-12-28T18:26:46Z</time>
      </trkpt>
      <trkpt lat="49.9261" lon="2.19938">
        <ele>30.1</ele>
        <time>2012-12-28T18:26:56Z</time>
      </trkpt>
      <trkpt lat="49.92612" lon="2.19916">
        <ele>33.4</ele>
        <time>2012-12-28T18:27:06Z</time>
      </trkpt>
      <trkpt lat="49.92607" lon="2.19896">
        <ele>28.7</ele>
        <time>2012-12-28T18:27:16Z</time>
      </trkpt>
      <trkpt lat="49.92597" lon="2.19881">
        <ele>31.9</ele>
        <time>2012-12-28T18:27:26Z</time>
      </trkpt>
      <trkpt lat="49.92578" lon="2.19867">
        <ele>27.2</ele>
        <time>2012-12-28T18:27:38Z</time>
      </trkpt>
      <trkpt lat="49.92566" lon="2.19858">
        <ele>26</ele>
        <time>2012-12-28T18:27:53Z</time>
      </trkpt>
      <trkpt lat="49.92554" lon="2.19846">
        <ele>28.8</ele>
        <time>2012-12-28T18:28:01Z</time>
      </trkpt>
      <trkpt lat="49.92542" lon="2.19836">
        <ele>32</ele>
        <time>2012-12-28T18:28:11Z</time>
      </trkpt>
      <trkpt lat="49.92529" lon="2.19824">
        <ele>32.7</ele>
        <time>2012-12-28T18:28:20Z</time>
      </trkpt>
      <trkpt lat="49.92516" lon="2.19813">
        <ele>29.1</ele>
        <time>2012-12-28T18:28:36Z</time>
      </trkpt>
      <trkpt lat="49.92503" lon="2.19804">
        <ele>28.8</ele>
        <time>2012-12-28T18:28:47Z</time>
      </trkpt>
      <trkpt lat="49.92491" lon="2.19795">
        <ele>24.8</ele>
        <time>2012-12-28T18:28:58Z</time>
      </trkpt>
      <trkpt lat="49.92479" lon="2.19784">
        <ele>25</ele>
        <time>2012-12-28T18:29:12Z</time>
      </trkpt>
      <trkpt lat="49.92466" lon="2.19775">
        <ele>22.4</ele>
        <time>2012-12-28T18:29:22Z</time>
      </trkpt>
      <trkpt lat="49.92453" lon="2.19766">
        <ele>27.3</ele>
        <time>2012-12-28T18:29:32Z</time>
      </trkpt>
      <trkpt lat="49.92439" lon="2.19754">
        <ele>27.2</ele>
        <time>2012-12-28T18:29:44Z</time>
      </trkpt>
      <trkpt lat="49.92427" lon="2.19741">
        <ele>25.8</ele>
        <time>2012-12-28T18:29:52Z</time>
      </trkpt>
      <trkpt lat="49.92413" lon="2.19728">
        <ele>31.9</ele>
        <time>2012-12-28T18:30:02Z</time>
      </trkpt>
      <trkpt lat="49.92402" lon="2.19716">
        <ele>35.7</ele>
        <time>2012-12-28T18:30:11Z</time>
      </trkpt>
      <trkpt lat="49.92392" lon="2.19701">
        <ele>36.5</ele>
        <time>2012-12-28T18:30:23Z</time>
      </trkpt>
      <trkpt lat="49.9238" lon="2.19689">
        <ele>36.2</ele>
        <time>2012-12-28T18:30:34Z</time>
      </trkpt>
      <trkpt lat="49.92367" lon="2.19672">
        <ele>40.4</ele>
        <time>2012-12-28T18:30:45Z</time>
      </trkpt>
      <trkpt lat="49.92355" lon="2.1966">
        <ele>43</ele>
        <time>2012-12-28T18:30:58Z</time>
      </trkpt>
      <trkpt lat="49.92345" lon="2.19645">
        <ele>41.7</ele>
        <time>2012-12-28T18:31:09Z</time>
      </trkpt>
      <trkpt lat="49.92333" lon="2.19635">
        <ele>45.1</ele>
        <time>2012-12-28T18:31:18Z</time>
      </trkpt>
      <trkpt lat="49.92321" lon="2.19622">
        <ele>46.3</ele>
        <time>2012-12-28T18:31:28Z</time>
      </trkpt>
      <trkpt lat="49.92308" lon="2.1961">
        <ele>45.2</ele>
        <time>2012-12-28T18:31:39Z</time>
      </trkpt>
      <trkpt lat="49.92296" lon="2.19599">
        <ele>42.9</ele>
        <time>2012-12-28T18:31:48Z</time>
      </trkpt>
      <trkpt lat="49.92287" lon="2.19583">
        <ele>42.8</ele>
        <time>2012-12-28T18:31:59Z</time>
      </trkpt>
      <trkpt lat="49.92276" lon="2.19571">
        <ele>41.3</ele>
        <time>2012-12-28T18:32:09Z</time>
      </trkpt>
      <trkpt lat="49.92263" lon="2.19582">
        <ele>46.8</ele>
        <time>2012-12-28T18:32:22Z</time>
      </trkpt>
      <trkpt lat="49.92255" lon="2.19603">
        <ele>53.7</ele>
        <time>2012-12-28T18:32:35Z</time>
      </trkpt>
      <trkpt lat="49.92248" lon="2.19623">
        <ele>56.2</ele>
        <time>2012-12-28T18:32:44Z</time>
      </trkpt>
      <trkpt lat="49.92243" lon="2.19643">
        <ele>57</ele>
        <time>2012-12-28T18:32:55Z</time>
      </trkpt>
      <trkpt lat="49.92238" lon="2.19665">
        <ele>55.8</ele>
        <time>2012-12-28T18:33:05Z</time>
      </trkpt>
      <trkpt lat="49.92231" lon="2.19684">
        <ele>55.5</ele>
        <time>2012-12-28T18:33:14Z</time>
      </trkpt>
      <trkpt lat="49.92225" lon="2.19703">
        <ele>52.2</ele>
        <time>2012-12-28T18:33:24Z</time>
      </trkpt>
      <trkpt lat="49.92219" lon="2.19723">
        <ele>52.5</ele>
        <time>2012-12-28T18:33:34Z</time>
      </trkpt>
      <trkpt lat="49.92213" lon="2.19743">
        <ele>52.8</ele>
        <time>2012-12-28T18:33:43Z</time>
      </trkpt>
      <trkpt lat="49.92205" lon="2.19762">
        <ele>52.8</ele>
        <time>2012-12-28T18:33:52Z</time>
      </trkpt>
      <trkpt lat="49.92199" lon="2.19782">
        <ele>52.1</ele>
        <time>2012-12-28T18:34:03Z</time>
      </trkpt>
      <trkpt lat="49.92193" lon="2.19802">
        <ele>51.4</ele>
        <time>2012-12-28T18:34:13Z</time>
      </trkpt>
      <trkpt lat="49.92187" lon="2.19822">
        <ele>50.6</ele>
        <time>2012-12-28T18:34:24Z</time>
      </trkpt>
      <trkpt lat="49.92182" lon="2.19846">
        <ele>49.7</ele>
        <time>2012-12-28T18:34:36Z</time>
      </trkpt>
      <trkpt lat="49.92178" lon="2.19867">
        <ele>47.7</ele>
        <time>2012-12-28T18:34:46Z</time>
      </trkpt>
      <trkpt lat="49.92173" lon="2.19887">
        <ele>45.5</ele>
        <time>2012-12-28T18:34:57Z</time>
      </trkpt>
      <trkpt lat="49.92169" lon="2.19908">
        <ele>46.9</ele>
        <time>2012-12-28T18:35:11Z</time>
      </trkpt>
      <trkpt lat="49.92162" lon="2.19929">
        <ele>45.8</ele>
        <time>2012-12-28T18:35:25Z</time>
      </trkpt>
      <trkpt lat="49.92156" lon="2.19949">
        <ele>45.7</ele>
        <time>2012-12-28T18:35:34Z</time>
      </trkpt>
      <trkpt lat="49.92146" lon="2.19966">
        <ele>45.8</ele>
        <time>2012-12-28T18:35:48Z</time>
      </trkpt>
      <trkpt lat="49.92136" lon="2.19984">
        <ele>41.7</ele>
        <time>2012-12-28T18:35:59Z</time>
      </trkpt>
      <trkpt lat="49.92116" lon="2.20025">
        <ele>49.5</ele>
        <time>2012-12-28T18:36:15Z</time>
      </trkpt>
      <trkpt lat="49.92116" lon="2.20025">
        <ele>49.5</ele>
        <time>2012-12-28T18:39:45Z</time>
      </trkpt>
      <trkpt lat="49.92101" lon="2.20049">
        <ele>52.8</ele>
        <time>2012-12-28T18:39:45Z</time>
      </trkpt>
      <trkpt lat="49.92091" lon="2.20065">
        <ele>54</ele>
        <time>2012-12-28T18:39:57Z</time>
      </trkpt>
      <trkpt lat="49.92081" lon="2.2008">
        <ele>54.9</ele>
        <time>2012-12-28T18:40:06Z</time>
      </trkpt>
      <trkpt lat="49.92073" lon="2.20097">
        <ele>57</ele>
        <time>2012-12-28T18:40:15Z</time>
      </trkpt>
      <trkpt lat="49.92063" lon="2.20112">
        <ele>53.1</ele>
        <time>2012-12-28T18:40:27Z</time>
      </trkpt>
      <trkpt lat="49.92053" lon="2.20127">
        <ele>53.8</ele>
        <time>2012-12-28T18:40:37Z</time>
      </trkpt>
      <trkpt lat="49.92045" lon="2.20144">
        <ele>54.6</ele>
        <time>2012-12-28T18:40:47Z</time>
      </trkpt>
      <trkpt lat="49.92037" lon="2.20162">
        <ele>52.3</ele>
        <time>2012-12-28T18:40:57Z</time>
      </trkpt>
      <trkpt lat="49.9203" lon="2.20181">
        <ele>53.6</ele>
        <time>2012-12-28T18:41:07Z</time>
      </trkpt>
      <trkpt lat="49.92023" lon="2.20199">
        <ele>49.5</ele>
        <time>2012-12-28T18:41:17Z</time>
      </trkpt>
      <trkpt lat="49.92016" lon="2.20217">
        <ele>49</ele>
        <time>2012-12-28T18:41:26Z</time>
      </trkpt>
      <trkpt lat="49.92007" lon="2.20235">
        <ele>53.2</ele>
        <time>2012-12-28T18:41:39Z</time>
      </trkpt>
      <trkpt lat="49.91997" lon="2.20252">
        <ele>52</ele>
        <time>2012-12-28T18:41:49Z</time>
      </trkpt>
      <trkpt lat="49.91989" lon="2.20269">
        <ele>53.7</ele>
        <time>2012-12-28T18:41:58Z</time>
      </trkpt>
      <trkpt lat="49.9198" lon="2.20287">
        <ele>54</ele>
        <time>2012-12-28T18:42:08Z</time>
      </trkpt>
      <trkpt lat="49.9197" lon="2.20312">
        <ele>50.3</ele>
        <time>2012-12-28T18:42:18Z</time>
      </trkpt>
      <trkpt lat="49.91963" lon="2.2033">
        <ele>48.8</ele>
        <time>2012-12-28T18:42:30Z</time>
      </trkpt>
      <trkpt lat="49.91955" lon="2.20351">
        <ele>47.6</ele>
        <time>2012-12-28T18:42:40Z</time>
      </trkpt>
      <trkpt lat="49.91948" lon="2.20371">
        <ele>47.5</ele>
        <time>2012-12-28T18:42:51Z</time>
      </trkpt>
      <trkpt lat="49.91943" lon="2.20392">
        <ele>49.5</ele>
        <time>2012-12-28T18:43:02Z</time>
      </trkpt>
      <trkpt lat="49.91938" lon="2.20412">
        <ele>51.2</ele>
        <time>2012-12-28T18:43:11Z</time>
      </trkpt>
      <trkpt lat="49.91929" lon="2.20429">
        <ele>53.1</ele>
        <time>2012-12-28T18:43:21Z</time>
      </trkpt>
      <trkpt lat="49.9192" lon="2.20446">
        <ele>54.7</ele>
        <time>2012-12-28T18:43:30Z</time>
      </trkpt>
      <trkpt lat="49.91912" lon="2.20466">
        <ele>54.9</ele>
        <time>2012-12-28T18:43:40Z</time>
      </trkpt>
      <trkpt lat="49.91905" lon="2.20484">
        <ele>52.1</ele>
        <time>2012-12-28T18:43:50Z</time>
      </trkpt>
      <trkpt lat="49.91895" lon="2.20503">
        <ele>55.6</ele>
        <time>2012-12-28T18:44:00Z</time>
      </trkpt>
      <trkpt lat="49.91885" lon="2.20526">
        <ele>54.3</ele>
        <time>2012-12-28T18:44:11Z</time>
      </trkpt>
      <trkpt lat="49.91875" lon="2.20543">
        <ele>52.9</ele>
        <time>2012-12-28T18:44:23Z</time>
      </trkpt>
      <trkpt lat="49.91866" lon="2.2056">
        <ele>51.8</ele>
        <time>2012-12-28T18:44:32Z</time>
      </trkpt>
      <trkpt lat="49.91856" lon="2.20574">
        <ele>50.6</ele>
        <time>2012-12-28T18:44:42Z</time>
      </trkpt>
      <trkpt lat="49.91847" lon="2.2059">
        <ele>49.3</ele>
        <time>2012-12-28T18:44:53Z</time>
      </trkpt>
      <trkpt lat="49.91837" lon="2.20607">
        <ele>50.2</ele>
        <time>2012-12-28T18:45:03Z</time>
      </trkpt>
      <trkpt lat="49.91827" lon="2.20623">
        <ele>53.2</ele>
        <time>2012-12-28T18:45:13Z</time>
      </trkpt>
      <trkpt lat="49.91818" lon="2.20641">
        <ele>55</ele>
        <time>2012-12-28T18:45:23Z</time>
      </trkpt>
      <trkpt lat="49.91809" lon="2.20659">
        <ele>50.5</ele>
        <time>2012-12-28T18:45:33Z</time>
      </trkpt>
      <trkpt lat="49.91799" lon="2.20674">
        <ele>48.8</ele>
        <time>2012-12-28T18:45:43Z</time>
      </trkpt>
      <trkpt lat="49.91789" lon="2.20688">
        <ele>53.1</ele>
        <time>2012-12-28T18:45:54Z</time>
      </trkpt>
      <trkpt lat="49.9178" lon="2.20705">
        <ele>51.4</ele>
        <time>2012-12-28T18:46:04Z</time>
      </trkpt>
      <trkpt lat="49.9177" lon="2.20722">
        <ele>48.5</ele>
        <time>2012-12-28T18:46:15Z</time>
      </trkpt>
      <trkpt lat="49.91759" lon="2.20742">
        <ele>50</ele>
        <time>2012-12-28T18:46:26Z</time>
      </trkpt>
      <trkpt lat="49.91749" lon="2.20758">
        <ele>51.5</ele>
        <time>2012-12-28T18:46:39Z</time>
      </trkpt>
      <trkpt lat="49.9174" lon="2.20774">
        <ele>52.7</ele>
        <time>2012-12-28T18:46:49Z</time>
      </trkpt>
      <trkpt lat="49.9173" lon="2.20791">
        <ele>53</ele>
        <time>2012-12-28T18:47:00Z</time>
      </trkpt>
      <trkpt lat="49.91721" lon="2.20807">
        <ele>51.1</ele>
        <time>2012-12-28T18:47:09Z</time>
      </trkpt>
      <trkpt lat="49.91712" lon="2.20823">
        <ele>51.3</ele>
        <time>2012-12-28T18:47:18Z</time>
      </trkpt>
      <trkpt lat="49.91702" lon="2.2084">
        <ele>53.5</ele>
        <time>2012-12-28T18:47:28Z</time>
      </trkpt>
      <trkpt lat="49.91693" lon="2.20856">
        <ele>51.5</ele>
        <time>2012-12-28T18:47:36Z</time>
      </trkpt>
      <trkpt lat="49.91683" lon="2.20872">
        <ele>53.3</ele>
        <time>2012-12-28T18:47:47Z</time>
      </trkpt>
      <trkpt lat="49.91674" lon="2.20889">
        <ele>56.4</ele>
        <time>2012-12-28T18:47:57Z</time>
      </trkpt>
      <trkpt lat="49.91665" lon="2.20906">
        <ele>55.1</ele>
        <time>2012-12-28T18:48:07Z</time>
      </trkpt>
      <trkpt lat="49.91656" lon="2.20922">
        <ele>53.8</ele>
        <time>2012-12-28T18:48:17Z</time>
      </trkpt>
      <trkpt lat="49.91645" lon="2.20938">
        <ele>52.3</ele>
        <time>2012-12-28T18:48:28Z</time>
      </trkpt>
      <trkpt lat="49.91636" lon="2.20953">
        <ele>51.2</ele>
        <time>2012-12-28T18:48:37Z</time>
      </trkpt>
      <trkpt lat="49.91626" lon="2.20968">
        <ele>52.2</ele>
        <time>2012-12-28T18:48:46Z</time>
      </trkpt>
      <trkpt lat="49.91616" lon="2.20982">
        <ele>51.5</ele>
        <time>2012-12-28T18:48:57Z</time>
      </trkpt>
      <trkpt lat="49.91604" lon="2.20997">
        <ele>53.1</ele>
        <time>2012-12-28T18:49:09Z</time>
      </trkpt>
      <trkpt lat="49.91593" lon="2.21011">
        <ele>54.6</ele>
        <time>2012-12-28T18:49:20Z</time>
      </trkpt>
      <trkpt lat="49.91579" lon="2.21026">
        <ele>56</ele>
        <time>2012-12-28T18:49:31Z</time>
      </trkpt>
      <trkpt lat="49.91567" lon="2.21039">
        <ele>53.2</ele>
        <time>2012-12-28T18:49:42Z</time>
      </trkpt>
      <trkpt lat="49.91555" lon="2.21051">
        <ele>51.2</ele>
        <time>2012-12-28T18:49:53Z</time>
      </trkpt>
      <trkpt lat="49.91541" lon="2.21061">
        <ele>47.1</ele>
        <time>2012-12-28T18:50:02Z</time>
      </trkpt>
      <trkpt lat="49.91528" lon="2.2107">
        <ele>49.2</ele>
        <time>2012-12-28T18:50:13Z</time>
      </trkpt>
      <trkpt lat="49.91515" lon="2.21076">
        <ele>50.9</ele>
        <time>2012-12-28T18:50:23Z</time>
      </trkpt>
      <trkpt lat="49.91501" lon="2.21084">
        <ele>52.4</ele>
        <time>2012-12-28T18:50:33Z</time>
      </trkpt>
      <trkpt lat="49.91489" lon="2.21093">
        <ele>52.6</ele>
        <time>2012-12-28T18:50:45Z</time>
      </trkpt>
      <trkpt lat="49.91478" lon="2.21106">
        <ele>50.8</ele>
        <time>2012-12-28T18:50:55Z</time>
      </trkpt>
      <trkpt lat="49.91468" lon="2.21122">
        <ele>53.8</ele>
        <time>2012-12-28T18:51:06Z</time>
      </trkpt>
      <trkpt lat="49.91475" lon="2.21154">
        <ele>54.8</ele>
        <time>2012-12-28T18:51:26Z</time>
      </trkpt>
      <trkpt lat="49.91475" lon="2.21154">
        <ele>54.8</ele>
        <time>2012-12-28T18:54:33Z</time>
      </trkpt>
      <trkpt lat="49.91488" lon="2.21164">
        <ele>48.8</ele>
        <time>2012-12-28T18:54:36Z</time>
      </trkpt>
      <trkpt lat="49.91501" lon="2.21172">
        <ele>50</ele>
        <time>2012-12-28T18:54:47Z</time>
      </trkpt>
      <trkpt lat="49.91514" lon="2.21183">
        <ele>47.5</ele>
        <time>2012-12-28T18:54:59Z</time>
      </trkpt>
      <trkpt lat="49.91529" lon="2.21197">
        <ele>44.7</ele>
        <time>2012-12-28T18:55:12Z</time>
      </trkpt>
      <trkpt lat="49.91541" lon="2.21209">
        <ele>42</ele>
        <time>2012-12-28T18:55:25Z</time>
      </trkpt>
      <trkpt lat="49.9155" lon="2.21226">
        <ele>39.3</ele>
        <time>2012-12-28T18:55:37Z</time>
      </trkpt>
      <trkpt lat="49.91558" lon="2.21249">
        <ele>43</ele>
        <time>2012-12-28T18:55:48Z</time>
      </trkpt>
      <trkpt lat="49.91563" lon="2.21273">
        <ele>46.5</ele>
        <time>2012-12-28T18:55:59Z</time>
      </trkpt>
      <trkpt lat="49.91564" lon="2.21295">
        <ele>46.6</ele>
        <time>2012-12-28T18:56:13Z</time>
      </trkpt>
      <trkpt lat="49.9156" lon="2.21318">
        <ele>44.8</ele>
        <time>2012-12-28T18:56:24Z</time>
      </trkpt>
      <trkpt lat="49.91556" lon="2.21341">
        <ele>51.7</ele>
        <time>2012-12-28T18:56:38Z</time>
      </trkpt>
      <trkpt lat="49.91554" lon="2.21363">
        <ele>54.7</ele>
        <time>2012-12-28T18:56:51Z</time>
      </trkpt>
      <trkpt lat="49.91549" lon="2.21383">
        <ele>57.5</ele>
        <time>2012-12-28T18:57:01Z</time>
      </trkpt>
      <trkpt lat="49.91545" lon="2.21404">
        <ele>51.6</ele>
        <time>2012-12-28T18:57:12Z</time>
      </trkpt>
      <trkpt lat="49.91538" lon="2.21422">
        <ele>49.7</ele>
        <time>2012-12-28T18:57:23Z</time>
      </trkpt>
      <trkpt lat="49.91534" lon="2.21443">
        <ele>51.6</ele>
        <time>2012-12-28T18:57:34Z</time>
      </trkpt>
      <trkpt lat="49.91527" lon="2.21462">
        <ele>53.3</ele>
        <time>2012-12-28T18:57:44Z</time>
      </trkpt>
      <trkpt lat="49.91523" lon="2.21481">
        <ele>53.7</ele>
        <time>2012-12-28T18:57:53Z</time>
      </trkpt>
      <trkpt lat="49.91519" lon="2.21502">
        <ele>54.1</ele>
        <time>2012-12-28T18:58:03Z</time>
      </trkpt>
      <trkpt lat="49.91513" lon="2.21521">
        <ele>54.6</ele>
        <time>2012-12-28T18:58:13Z</time>
      </trkpt>
      <trkpt lat="49.91508" lon="2.21542">
        <ele>53.1</ele>
        <time>2012-12-28T18:58:25Z</time>
      </trkpt>
      <trkpt lat="49.91506" lon="2.21564">
        <ele>50.9</ele>
        <time>2012-12-28T18:58:36Z</time>
      </trkpt>
      <trkpt lat="49.91502" lon="2.21585">
        <ele>49.1</ele>
        <time>2012-12-28T18:58:47Z</time>
      </trkpt>
      <trkpt lat="49.915" lon="2.21606">
        <ele>50.9</ele>
        <time>2012-12-28T18:58:57Z</time>
      </trkpt>
      <trkpt lat="49.91497" lon="2.21627">
        <ele>53.1</ele>
        <time>2012-12-28T18:59:06Z</time>
      </trkpt>
      <trkpt lat="49.91497" lon="2.21649">
        <ele>51.8</ele>
        <time>2012-12-28T18:59:16Z</time>
      </trkpt>
      <trkpt lat="49.91495" lon="2.21672">
        <ele>50.2</ele>
        <time>2012-12-28T18:59:28Z</time>
      </trkpt>
      <trkpt lat="49.91492" lon="2.21694">
        <ele>49.3</ele>
        <time>2012-12-28T18:59:39Z</time>
      </trkpt>
      <trkpt lat="49.91489" lon="2.21716">
        <ele>51.4</ele>
        <time>2012-12-28T18:59:49Z</time>
      </trkpt>
      <trkpt lat="49.91485" lon="2.21737">
        <ele>53.4</ele>
        <time>2012-12-28T19:00:00Z</time>
      </trkpt>
      <trkpt lat="49.91482" lon="2.21758">
        <ele>52.7</ele>
        <time>2012-12-28T19:00:10Z</time>
      </trkpt>
      <trkpt lat="49.9148" lon="2.21779">
        <ele>52.1</ele>
        <time>2012-12-28T19:00:19Z</time>
      </trkpt>
      <trkpt lat="49.91478" lon="2.218">
        <ele>51.6</ele>
        <time>2012-12-28T19:00:28Z</time>
      </trkpt>
      <trkpt lat="49.91475" lon="2.2182">
        <ele>50.9</ele>
        <time>2012-12-28T19:00:38Z</time>
      </trkpt>
      <trkpt lat="49.91472" lon="2.21841">
        <ele>50.3</ele>
        <time>2012-12-28T19:00:48Z</time>
      </trkpt>
      <trkpt lat="49.91467" lon="2.21864">
        <ele>46.3</ele>
        <time>2012-12-28T19:01:00Z</time>
      </trkpt>
      <trkpt lat="49.91462" lon="2.21885">
        <ele>46.7</ele>
        <time>2012-12-28T19:01:11Z</time>
      </trkpt>
      <trkpt lat="49.91461" lon="2.21906">
        <ele>48.3</ele>
        <time>2012-12-28T19:01:21Z</time>
      </trkpt>
      <trkpt lat="49.91457" lon="2.21927">
        <ele>47.3</ele>
        <time>2012-12-28T19:01:32Z</time>
      </trkpt>
      <trkpt lat="49.91455" lon="2.21949">
        <ele>46.1</ele>
        <time>2012-12-28T19:01:41Z</time>
      </trkpt>
      <trkpt lat="49.9145" lon="2.2197">
        <ele>47</ele>
        <time>2012-12-28T19:01:51Z</time>
      </trkpt>
      <trkpt lat="49.91448" lon="2.21992">
        <ele>49.3</ele>
        <time>2012-12-28T19:02:02Z</time>
      </trkpt>
      <trkpt lat="49.91445" lon="2.22013">
        <ele>50.4</ele>
        <time>2012-12-28T19:02:12Z</time>
      </trkpt>
      <trkpt lat="49.91443" lon="2.22035">
        <ele>44.5</ele>
        <time>2012-12-28T19:02:22Z</time>
      </trkpt>
      <trkpt lat="49.91441" lon="2.22057">
        <ele>48.4</ele>
        <time>2012-12-28T19:02:32Z</time>
      </trkpt>
      <trkpt lat="49.9144" lon="2.2208">
        <ele>46.6</ele>
        <time>2012-12-28T19:02:43Z</time>
      </trkpt>
      <trkpt lat="49.91438" lon="2.22101">
        <ele>45.6</ele>
        <time>2012-12-28T19:02:54Z</time>
      </trkpt>
      <trkpt lat="49.91434" lon="2.22124">
        <ele>46</ele>
        <time>2012-12-28T19:03:04Z</time>
      </trkpt>
      <trkpt lat="49.91429" lon="2.2215">
        <ele>47.1</ele>
        <time>2012-12-28T19:03:14Z</time>
      </trkpt>
      <trkpt lat="49.91427" lon="2.22172">
        <ele>48.4</ele>
        <time>2012-12-28T19:03:26Z</time>
      </trkpt>
      <trkpt lat="49.91422" lon="2.22194">
        <ele>49.5</ele>
        <time>2012-12-28T19:03:37Z</time>
      </trkpt>
      <trkpt lat="49.91417" lon="2.22215">
        <ele>46</ele>
        <time>2012-12-28T19:03:48Z</time>
      </trkpt>
      <trkpt lat="49.91413" lon="2.22235">
        <ele>44.4</ele>
        <time>2012-12-28T19:03:57Z</time>
      </trkpt>
      <trkpt lat="49.91411" lon="2.22256">
        <ele>43.4</ele>
        <time>2012-12-28T19:04:07Z</time>
      </trkpt>
      <trkpt lat="49.91407" lon="2.22276">
        <ele>42.1</ele>
        <time>2012-12-28T19:04:20Z</time>
      </trkpt>
      <trkpt lat="49.91402" lon="2.22298">
        <ele>41.2</ele>
        <time>2012-12-28T19:04:30Z</time>
      </trkpt>
      <trkpt lat="49.91399" lon="2.22319">
        <ele>40.6</ele>
        <time>2012-12-28T19:04:41Z</time>
      </trkpt>
      <trkpt lat="49.91397" lon="2.22341">
        <ele>40.7</ele>
        <time>2012-12-28T19:04:50Z</time>
      </trkpt>
      <trkpt lat="49.91395" lon="2.22362">
        <ele>40.4</ele>
        <time>2012-12-28T19:05:00Z</time>
      </trkpt>
      <trkpt lat="49.91394" lon="2.22384">
        <ele>39.4</ele>
        <time>2012-12-28T19:05:10Z</time>
      </trkpt>
      <trkpt lat="49.91394" lon="2.22407">
        <ele>38.1</ele>
        <time>2012-12-28T19:05:22Z</time>
      </trkpt>
      <trkpt lat="49.91395" lon="2.22428">
        <ele>36.9</ele>
        <time>2012-12-28T19:05:34Z</time>
      </trkpt>
      <trkpt lat="49.91398" lon="2.22449">
        <ele>33.6</ele>
        <time>2012-12-28T19:05:44Z</time>
      </trkpt>
      <trkpt lat="49.914" lon="2.22476">
        <ele>28.1</ele>
        <time>2012-12-28T19:05:56Z</time>
      </trkpt>
      <trkpt lat="49.91402" lon="2.22499">
        <ele>32.7</ele>
        <time>2012-12-28T19:06:09Z</time>
      </trkpt>
      <trkpt lat="49.91405" lon="2.2252">
        <ele>32.8</ele>
        <time>2012-12-28T19:06:18Z</time>
      </trkpt>
      <trkpt lat="49.91407" lon="2.22542">
        <ele>32.9</ele>
        <time>2012-12-28T19:06:28Z</time>
      </trkpt>
      <trkpt lat="49.91407" lon="2.22564">
        <ele>28.1</ele>
        <time>2012-12-28T19:06:39Z</time>
      </trkpt>
      <trkpt lat="49.91411" lon="2.22589">
        <ele>33.5</ele>
        <time>2012-12-28T19:06:49Z</time>
      </trkpt>
      <trkpt lat="49.9141" lon="2.22612">
        <ele>32</ele>
        <time>2012-12-28T19:07:03Z</time>
      </trkpt>
      <trkpt lat="49.91409" lon="2.22634">
        <ele>28.4</ele>
        <time>2012-12-28T19:07:13Z</time>
      </trkpt>
      <trkpt lat="49.91407" lon="2.22654">
        <ele>37.5</ele>
        <time>2012-12-28T19:07:23Z</time>
      </trkpt>
      <trkpt lat="49.91407" lon="2.22676">
        <ele>34.9</ele>
        <time>2012-12-28T19:07:36Z</time>
      </trkpt>
      <trkpt lat="49.91404" lon="2.227">
        <ele>28.6</ele>
        <time>2012-12-28T19:07:56Z</time>
      </trkpt>
      <trkpt lat="49.91407" lon="2.22722">
        <ele>25.1</ele>
        <time>2012-12-28T19:08:09Z</time>
      </trkpt>
      <trkpt lat="49.91406" lon="2.22744">
        <ele>25.7</ele>
        <time>2012-12-28T19:08:25Z</time>
      </trkpt>
      <trkpt lat="49.91405" lon="2.22766">
        <ele>22.8</ele>
        <time>2012-12-28T19:08:36Z</time>
      </trkpt>
      <trkpt lat="49.91405" lon="2.22788">
        <ele>20.6</ele>
        <time>2012-12-28T19:08:49Z</time>
      </trkpt>
      <trkpt lat="49.91406" lon="2.22812">
        <ele>21.6</ele>
        <time>2012-12-28T19:09:02Z</time>
      </trkpt>
      <trkpt lat="49.91405" lon="2.22833">
        <ele>24</ele>
        <time>2012-12-28T19:09:18Z</time>
      </trkpt>
      <trkpt lat="49.91406" lon="2.22855">
        <ele>27.4</ele>
        <time>2012-12-28T19:09:26Z</time>
      </trkpt>
      <trkpt lat="49.91406" lon="2.22876">
        <ele>20.7</ele>
        <time>2012-12-28T19:09:41Z</time>
      </trkpt>
      <trkpt lat="49.91405" lon="2.22899">
        <ele>17.1</ele>
        <time>2012-12-28T19:09:57Z</time>
      </trkpt>
      <trkpt lat="49.91404" lon="2.22921">
        <ele>19.5</ele>
        <time>2012-12-28T19:10:06Z</time>
      </trkpt>
      <trkpt lat="49.91402" lon="2.22943">
        <ele>23.4</ele>
        <time>2012-12-28T19:10:14Z</time>
      </trkpt>
      <trkpt lat="49.914" lon="2.22966">
        <ele>22.5</ele>
        <time>2012-12-28T19:10:28Z</time>
      </trkpt>
      <trkpt lat="49.914" lon="2.22989">
        <ele>19.8</ele>
        <time>2012-12-28T19:10:40Z</time>
      </trkpt>
      <trkpt lat="49.914" lon="2.23012">
        <ele>17.3</ele>
        <time>2012-12-28T19:10:53Z</time>
      </trkpt>
      <trkpt lat="49.91398" lon="2.23038">
        <ele>21.6</ele>
        <time>2012-12-28T19:11:05Z</time>
      </trkpt>
      <trkpt lat="49.91398" lon="2.23059">
        <ele>22.4</ele>
        <time>2012-12-28T19:11:21Z</time>
      </trkpt>
      <trkpt lat="49.91398" lon="2.23079">
        <ele>23.7</ele>
        <time>2012-12-28T19:11:33Z</time>
      </trkpt>
      <trkpt lat="49.91396" lon="2.23102">
        <ele>19.8</ele>
        <time>2012-12-28T19:11:50Z</time>
      </trkpt>
      <trkpt lat="49.91396" lon="2.23133">
        <ele>14</ele>
        <time>2012-12-28T19:12:07Z</time>
      </trkpt>
      <trkpt lat="49.91393" lon="2.23155">
        <ele>12.8</ele>
        <time>2012-12-28T19:12:33Z</time>
      </trkpt>
    </trkseg>
  </trk>
</gpx>